Aérodrome :
LOGIN :

S'inscrire | Disclaimer

   EN    FR    IT 

 










Légende :    VFR   VFR Marginal   IFR   IFR Intensif   IFR Très Intensif
Visi : 
Plafond : 
>= 8 km
>= 3000ft
5 à 8 km
1000 à 3000 ft
1500m à 5 km
500 à 1000 ft
800 à 1500m
200 à 500 ft
< 800m
< 200 ft
Symboles :   Orages  Brouillard  Fortes neiges  Fortes précipitations  Vent > 20 kt
SIGMETs :   Divers  Orages  Givrage  Turbulence  Onde Orograph.  Cendres Volcan.






- Altitude de l'aérodrome : 1197 ft
- Code IATA : SPM


ETAD - Spangdahlem Ab

DERNIER METAR :
  • 150656Z AUTO 21019G26KT 9999 OVC018 09/06 A2946 RMK AO2 PK WND 21031/56 CIG 017 RWY05 SLP973 T00860064 $

METARs EXPIRÉS :
  • 150556Z AUTO 21021G27KT 9999 OVC019 08/07 A2945 RMK AO2 PK WND 22028/0457 RAE0455 OVC V BKN SLP970 60000 T00830066 10084 20053 53004 $
  • 150527Z AUTO 21017G24KT 9999 FEW015 BKN022 OVC030 08/06 A2945 RMK AO2 RAE0455 CIG 018V024 CIG 020 RWY05 SLP970 $
  • 150512Z AUTO 21021G27KT 9999 BKN016 BKN020 OVC029 08/07 A2944 RMK AO2 RAE0455 SLP968 $
  • 150457Z AUTO 22019G25KT 9999 FEW008 BKN014 OVC018 08/07 A2944 RMK AO2 RAE55 CIG 012V016 CIG 013 RWY05 SLP968 $
  • 150456Z AUTO 21018G25KT 9999 -RA FEW008 BKN014 OVC018 08/07 A2944 RMK AO2 PK WND 21027/00 RAE40DZB40E41RAB45 CIG 012V016 CIG 013 RWY05 SLP968 P0000 T00810070 $
  • 150426Z AUTO 21017G25KT 9999 -RA BKN009 OVC014 08/07 A2942 RMK AO2 BKN V OVC SLP960 $
  • 150411Z AUTO 21019G27KT 9999 -RA BKN010 OVC015 08/07 A2943 RMK AO2 CIG 008V013 SLP963 $

TAF AMD TAF ETAD
Valide du 14 à 17h jusqu'au 15 à 21h UTC


141738Z 1417/1521 22012G20KT 9000 -SHRA SCT015 BKN025 BKN060 610307 510004 QNH2945INS
BECMG 1422/1423 20010G15KT 9999 NSW BKN010 QNH2949INS
BECMG 1500/1501 22010G15KT 9000 -SHRA BKN005 OVC010 610709 QNH2941INS
BECMG 1503/1504 22010G25KT 9000 -SHRA FEW007 OVC010 610706 510004 QNH2940INS
TEMPO 1504/1509 23015G35KT 520005
BECMG 1508/1509 24010G18KT 9999 NSW SCT015 BKN060 620605 QNH2960INS WND 24012KT AFT 1515
BECMG 1517/1518 22012KT 9999 BKN010 OVC015 650502 QNH2973INS TX10/1506Z TN04/1422Z LAST NO AMDS AFT 1419 NEXT 1511



MET'MAP, la Météo Aéronautique d'un coup d'oeil ! - Copyright ORBIFLY Décembre 2007 - Disclaimer

ORBIFLY MET'MAP TEAM :

Programmation & Développement : Alexandra Zaïnal
Sur une idée originale de : Baudouin d'Aumeries
Assistance à la programmation : Marc-Olivier Méhu
Soutien technique & logistique : Manuel Goepfert

Contact : metmap@orbifly.com




SOURCES & CREDITS :

   NOAA